Latest Weather Observations for Dum In Mirrie

IDD60901

Issued at 9:51 pm CST Wednesday 5 August 2015 (issued every 10 minutes, with the page automatically refreshed every 10 minutes)

About weather observations | Map of Darwin area stations | Latest observations for Darwin area | Other Formats
Station Details ID: 014277 Name: DUM IN MIRRIE AIRSTRIP Lat: -12.63 Lon: 130.37 Height: 3.5 m
Data from the previous 72 hours. | See also: Recent months at Dum In Mirrie
Date/Time
CST
Tmp

°C
App
Tmp
°C
Dew
Point
°C
Rel
Hum
%
Delta-T

°C
Wind Press
QNH
hPa
Press
MSL
hPa
Rain
since
9 am
mm
Dir
 
Spd
km/h
Gust
km/h
Spd
kts
Gust
kts
05/09:30pm 22.9 21.5 7.4 37 8.1 SSE 4 9 2 5 1014.1 1014.1 -
05/09:00pm 24.0 22.2 7.2 34 8.8 SSE 6 9 3 5 1013.7 1013.7 -
05/08:30pm 24.6 24.6 13.5 50 6.5 SSW 6 9 3 5 1013.3 1013.3 -
05/08:00pm 24.6 25.9 17.6 65 4.4 W 7 13 4 7 1013.1 1013.1 -
05/07:30pm 25.0 25.0 15.3 55 5.8 W 9 13 5 7 1012.6 1012.6 -
05/07:00pm 25.2 25.4 15.8 56 5.7 W 9 17 5 9 1012.4 1012.4 -
05/06:00pm 26.0 26.0 15.1 51 6.6 WNW 9 17 5 9 1011.8 1011.8 -
05/05:30pm 27.6 28.0 15.3 47 7.5 WNW 7 - 4 - - 1011.5 -
05/04:30pm 30.4 27.1 2.6 17 13.9 E 9 - 5 - - 1011.4 -
05/03:00pm 30.6 26.4 3.6 18 13.8 ENE 15 24 8 13 1011.8 1011.8 0.0
05/02:30pm 30.1 26.3 4.0 19 13.4 E 13 20 7 11 1012.3 1012.3 0.0
05/02:00pm 30.0 26.3 4.6 20 13.1 E 13 19 7 10 1012.7 1012.7 0.0
05/01:30pm 29.9 26.6 4.5 20 13.1 ESE 11 19 6 10 1013.2 1013.2 0.0
05/01:00pm 29.1 25.1 3.1 19 13.0 ESE 13 24 7 13 1013.8 1013.8 0.0
05/12:30pm 29.1 25.3 3.9 20 12.8 ESE 13 22 7 12 1014.4 1014.4 0.0
05/12:00pm 28.2 24.1 4.5 22 12.1 ESE 15 22 8 12 1015.0 1015.0 0.0
05/11:30am 26.8 22.4 2.7 21 11.8 SE 15 28 8 15 1015.5 1015.5 0.0
05/11:00am 26.0 20.8 2.7 22 11.3 ESE 19 32 10 17 1015.9 1015.9 0.0
05/10:30am 25.2 20.1 3.2 24 10.7 ESE 19 30 10 16 1016.1 1016.1 0.0
05/10:00am 24.4 19.7 3.1 25 10.3 ESE 17 28 9 15 1016.3 1016.3 0.0
05/09:30am 23.1 19.0 4.1 29 9.3 ESE 15 24 8 13 1016.3 1016.3 0.0
05/09:00am 22.5 19.2 4.5 31 8.8 ESE 11 24 6 13 1016.3 1016.3 0.0
05/08:30am 21.3 18.4 4.8 34 8.1 ESE 9 15 5 8 1016.1 1016.1 0.0
05/08:00am 20.5 18.3 5.3 37 7.5 ESE 6 11 3 6 1016.0 1016.0 0.0
05/07:30am 19.5 17.2 5.6 40 6.8 SE 7 13 4 7 1015.9 1015.9 0.0
05/07:00am 19.5 17.6 6.6 43 6.5 SE 6 13 3 7 1015.4 1015.4 0.0
05/06:30am 19.0 17.1 6.8 45 6.1 ESE 6 9 3 5 1015.1 1015.1 0.0
05/06:00am 19.2 17.9 7.6 47 5.9 ESE 4 7 2 4 1014.6 1014.6 0.0
05/05:30am 19.9 18.0 7.6 45 6.3 SE 7 13 4 7 1014.2 1014.2 0.0
05/05:00am 19.8 18.1 8.2 47 6.0 ESE 7 13 4 7 1013.9 1013.9 0.0
05/04:30am 19.5 17.9 8.8 50 5.6 ESE 7 11 4 6 1013.6 1013.6 0.0
05/04:00am 19.8 18.6 9.4 51 5.5 ESE 6 9 3 5 1013.5 1013.5 0.0
05/03:30am 19.7 18.5 10.4 55 5.0 ESE 7 13 4 7 1013.5 1013.5 0.0
05/03:00am 17.9 17.3 10.3 61 4.1 ESE 4 6 2 3 1013.4 1013.4 0.0
05/02:30am 19.9 19.3 10.3 54 5.2 ESE 4 6 2 3 1013.6 1013.6 0.0
05/02:00am 21.1 20.2 11.4 54 5.4 ESE 7 9 4 5 1013.7 1013.7 0.0
05/01:30am 20.9 20.8 13.8 64 4.1 ESE 7 11 4 6 1013.9 1013.9 0.0
05/01:00am 18.1 19.5 16.3 89 1.1 ESE 4 7 2 4 1014.0 1014.0 0.0
05/12:30am 18.7 20.9 17.4 92 0.8 SE 2 4 1 2 1014.1 1014.1 0.0
05/12:00am 18.8 21.3 17.3 91 0.9 CALM 0 0 0 0 1014.3 1014.3 0.0
 
Date/Time
CST
Tmp

°C
App
Tmp
°C
Dew
Point
°C
Rel
Hum
%
Delta-T

°C
Wind Press
QNH
hPa
Press
MSL
hPa
Rain
since
9 am
mm
Dir
 
Spd
km/h
Gust
km/h
Spd
kts
Gust
kts
04/11:30pm 19.3 21.9 17.6 90 1.0 CALM 0 0 0 0 1014.4 1014.4 0.0
04/11:00pm 19.6 22.2 17.6 88 1.2 CALM 0 4 0 2 1014.4 1014.4 0.0
04/10:30pm 20.2 22.9 17.8 86 1.5 CALM 0 0 0 0 1014.3 1014.3 0.0
04/10:00pm 21.2 24.0 18.0 82 2.0 CALM 0 2 0 1 1014.2 1014.2 0.0
04/09:30pm 22.3 24.9 18.3 78 2.5 N 2 4 1 2 1014.0 1014.0 0.0
04/09:00pm 23.5 25.6 19.0 76 2.9 NNW 6 7 3 4 1013.8 1013.8 0.0
04/08:30pm 23.6 25.9 19.5 78 2.6 N 6 9 3 5 1013.5 1013.5 0.0
04/08:00pm 23.2 25.6 18.7 76 2.8 N 4 6 2 3 1013.0 1013.0 0.0
04/07:30pm 23.6 25.6 18.7 74 3.1 NNW 6 7 3 4 1012.4 1012.4 0.0
04/07:00pm 25.1 27.7 19.2 70 3.8 NNW 4 7 2 4 1012.1 1012.1 0.0
04/06:30pm 26.1 28.4 19.5 67 4.3 NW 6 9 3 5 1011.9 1011.9 0.0
04/06:00pm 27.3 29.6 19.4 62 5.1 WNW 6 11 3 6 1011.9 1011.9 0.0
04/05:30pm 28.2 29.6 18.6 56 6.2 W 9 19 5 10 1011.7 1011.7 0.0
04/05:00pm 28.6 29.2 18.7 55 6.4 W 13 20 7 11 1011.5 1011.5 0.0
04/04:30pm 29.4 30.0 17.6 49 7.5 W 11 20 6 11 1011.5 1011.5 0.0
04/04:00pm 32.3 30.9 10.9 27 12.4 ESE 9 17 5 9 1011.6 1011.6 0.0
04/03:30pm 31.8 29.4 9.9 26 12.5 E 13 20 7 11 1011.9 1011.9 0.0
04/03:00pm 31.6 28.3 10.9 28 12.0 E 19 28 10 15 1012.1 1012.1 0.0
04/02:30pm 31.5 28.2 10.8 28 11.9 E 19 28 10 15 1012.7 1012.7 0.0
04/02:00pm 31.7 28.8 11.0 28 12.0 E 17 28 9 15 1013.4 1013.4 0.0
04/01:30pm 31.5 29.2 11.8 30 11.5 E 15 28 8 15 1014.0 1014.0 0.0
04/01:00pm 31.1 29.0 12.5 32 11.0 ESE 15 24 8 13 1014.6 1014.6 0.0
04/12:30pm 30.4 28.6 13.2 35 10.2 ESE 15 24 8 13 1015.3 1015.3 0.0
04/12:00pm 29.3 28.9 15.1 42 8.7 E 11 19 6 10 1015.9 1015.9 0.0
04/11:30am 28.8 29.8 16.4 47 7.7 ESE 6 11 3 6 1016.4 1016.4 0.0
04/11:00am 27.9 28.9 17.7 53 6.4 ESE 9 13 5 7 1016.8 1016.8 0.0
04/10:30am 27.0 28.8 18.8 60 5.2 SE 7 13 4 7 1017.0 1017.0 0.0
04/10:00am 26.0 28.2 19.6 68 4.1 SE 7 13 4 7 1017.3 1017.3 0.0
04/09:30am 24.6 27.3 20.7 79 2.5 SSE 7 13 4 7 1017.1 1017.1 0.0
04/09:00am 23.5 26.3 20.8 85 1.8 SE 7 11 4 6 1016.8 1016.8 0.0
04/08:30am 22.3 26.3 22.0 98 0.2 SE 4 9 2 5 1016.5 1016.5 0.0
04/08:00am 21.7 25.4 21.5 99 0.1 SE 4 7 2 4 1016.1 1016.1 0.0
04/07:30am 21.3 24.4 21.0 98 0.2 SSE 6 9 3 5 1015.9 1015.9 0.0
04/07:00am 21.2 24.2 20.9 98 0.2 SE 6 13 3 7 1015.6 1015.6 0.0
04/06:30am 21.1 24.4 20.8 98 0.2 SSE 4 7 2 4 1015.3 1015.3 0.0
04/06:00am 21.3 24.2 21.0 98 0.2 S 7 13 4 7 1015.1 1015.1 0.0
04/05:30am 20.8 24.8 20.5 98 0.2 CALM 0 0 0 0 1014.6 1014.6 0.0
04/05:00am 21.5 25.8 21.2 98 0.2 CALM 0 2 0 1 1014.4 1014.4 0.0
04/04:30am 21.6 25.6 21.3 98 0.2 SE 2 4 1 2 1014.5 1014.5 0.0
04/04:00am 21.7 25.4 21.4 98 0.2 SE 4 6 2 3 1014.6 1014.6 0.0
04/03:30am 22.1 26.0 21.8 98 0.2 SSE 4 7 2 4 1014.5 1014.5 0.0
04/03:00am 21.9 25.7 21.6 98 0.2 SE 4 6 2 3 1014.6 1014.6 0.0
04/02:30am 21.6 25.1 21.1 97 0.3 SSE 4 6 2 3 1014.6 1014.6 0.0
04/02:00am 20.8 23.9 19.6 93 0.8 S 2 4 1 2 1014.8 1014.8 0.0
04/01:30am 21.4 24.8 20.2 93 0.8 S 2 4 1 2 1014.9 1014.9 0.0
04/01:00am 22.0 25.3 20.8 93 0.8 SSE 4 6 2 3 1015.3 1015.3 0.0
04/12:30am 22.7 26.6 21.2 91 1.0 SE 2 4 1 2 1015.5 1015.5 0.0
04/12:00am 23.2 26.9 21.5 90 1.1 S 4 6 2 3 1015.5 1015.5 0.0
 
Date/Time
CST
Tmp

°C
App
Tmp
°C
Dew
Point
°C
Rel
Hum
%
Delta-T

°C
Wind Press
QNH
hPa
Press
MSL
hPa
Rain
since
9 am
mm
Dir
 
Spd
km/h
Gust
km/h
Spd
kts
Gust
kts
03/11:30pm 23.7 27.7 21.4 87 1.5 SE 2 6 1 3 1015.4 1015.4 0.0
03/11:00pm 24.0 27.9 21.1 84 1.9 SSW 2 7 1 4 1015.4 1015.4 0.0
03/10:30pm 24.8 28.1 21.5 82 2.2 SSW 6 11 3 6 1015.5 1015.5 0.0
03/10:00pm 25.2 27.8 21.9 82 2.2 SSW 11 19 6 10 1015.1 1015.1 0.0
03/09:30pm 25.2 27.9 21.3 79 2.6 SW 9 15 5 8 1014.9 1014.9 0.0
03/09:00pm 25.1 28.1 21.2 79 2.6 SW 7 11 4 6 1014.9 1014.9 0.0
03/08:30pm 25.1 28.7 21.2 79 2.6 SW 4 7 2 4 1014.6 1014.6 0.0
03/08:00pm 25.2 28.7 21.1 78 2.7 SW 4 7 2 4 1014.3 1014.3 0.0
03/07:30pm 25.1 28.2 21.0 78 2.7 W 6 9 3 5 1013.8 1013.8 0.0
03/07:00pm 25.3 28.3 20.8 76 3.0 W 6 9 3 5 1013.6 1013.6 0.0
03/06:30pm 25.6 28.2 20.4 73 3.4 W 7 9 4 5 1013.3 1013.3 0.0
03/06:00pm 26.5 29.3 20.8 71 3.8 W 7 13 4 7 1013.1 1013.1 0.0
03/05:30pm 27.3 30.0 20.6 67 4.4 WNW 7 11 4 6 1013.0 1013.0 0.0
03/05:00pm 27.4 30.0 20.5 66 4.5 W 7 13 4 7 1012.6 1012.6 0.0
03/04:30pm 27.9 30.0 20.2 63 5.0 WNW 9 15 5 8 1012.5 1012.5 0.0
03/04:00pm 28.3 30.6 20.6 63 5.1 NW 9 17 5 9 1012.5 1012.5 0.0
03/03:30pm 28.4 30.5 20.2 61 5.4 WNW 9 15 5 8 1012.6 1012.6 0.0
03/03:00pm 28.7 30.4 20.2 60 5.6 NW 11 20 6 11 1012.7 1012.7 0.0
03/02:30pm 28.7 29.9 19.9 59 5.8 N 13 20 7 11 1012.9 1012.9 0.0
03/02:00pm 28.4 28.6 19.3 57 5.9 N 17 28 9 15 1013.3 1013.3 0.0
03/01:30pm 28.4 28.6 19.3 57 5.9 N 17 24 9 13 1014.0 1014.0 0.0
03/01:00pm 28.6 29.6 19.5 58 5.9 N 13 20 7 11 1014.6 1014.6 0.0
03/12:30pm 27.9 29.6 20.2 63 5.0 N 11 19 6 10 1015.1 1015.1 0.0
03/12:00pm 28.2 29.7 19.7 60 5.5 N 11 19 6 10 1015.5 1015.5 0.0
03/11:30am 27.8 29.3 19.8 61 5.2 N 11 17 6 9 1015.9 1015.9 0.0
03/11:00am 28.2 29.8 19.2 58 5.8 N 9 13 5 7 1016.3 1016.3 0.0
03/10:30am 28.0 29.9 19.8 61 5.3 N 9 17 5 9 1016.4 1016.4 0.0
03/10:00am 27.2 29.1 19.8 64 4.8 NE 9 17 5 9 1016.5 1016.5 0.0
03/09:30am 26.6 29.1 20.2 68 4.2 ENE 7 11 4 6 1016.6 1016.6 0.0
03/09:00am 25.1 27.6 19.9 73 3.4 ESE 6 7 3 4 1016.5 1016.5 0.0
03/08:30am 24.0 27.6 20.5 81 2.3 E 2 4 1 2 1016.3 1016.3 0.0
03/08:00am 21.8 25.2 21.0 95 0.5 E 4 6 2 3 1016.2 1016.2 0.0
03/07:30am 20.8 24.0 20.5 98 0.2 ESE 4 6 2 3 1015.9 1015.9 0.0
03/07:00am 20.6 23.7 20.3 98 0.2 ESE 4 6 2 3 1015.6 1015.6 0.0
03/06:30am 20.1 22.6 19.8 98 0.2 ESE 6 7 3 4 1015.4 1015.4 0.0
03/06:00am 19.3 21.5 18.3 94 0.6 ESE 4 6 2 3 1015.2 1015.2 0.0
03/05:30am 19.5 21.7 18.3 93 0.7 ESE 4 4 2 2 1015.0 1015.0 0.0
03/05:00am 20.7 23.8 20.2 97 0.3 SE 4 6 2 3 1014.9 1014.9 0.0
03/04:30am 20.4 23.7 19.9 97 0.3 SE 2 4 1 2 1014.8 1014.8 0.0
03/04:00am 19.3 21.5 18.3 94 0.6 SSE 4 6 2 3 1014.8 1014.8 0.0
03/03:30am 18.9 21.1 17.4 91 0.9 ESE 2 4 1 2 1015.1 1015.1 0.0
03/03:00am 19.9 22.2 18.6 92 0.8 ESE 4 6 2 3 1015.2 1015.2 0.0
03/02:30am 20.4 22.5 18.9 91 0.9 ESE 6 6 3 3 1015.4 1015.4 0.0
03/02:00am 20.9 23.0 19.0 89 1.2 E 6 7 3 4 1015.6 1015.6 0.0
03/01:30am 21.3 23.6 19.4 89 1.2 SSE 6 6 3 3 1015.7 1015.7 0.0
03/01:00am 21.4 24.1 19.5 89 1.2 SSE 4 7 2 4 1015.8 1015.8 0.0
03/12:30am 21.7 24.5 19.6 88 1.3 SSE 4 6 2 3 1015.7 1015.7 0.0
03/12:00am 22.4 24.8 20.1 87 1.5 SSE 7 13 4 7 1015.7 1015.7 0.0
 
Date/Time
CST
Tmp

°C
App
Tmp
°C
Dew
Point
°C
Rel
Hum
%
Delta-T

°C
Wind Press
QNH
hPa
Press
MSL
hPa
Rain
since
9 am
mm
Dir
 
Spd
km/h
Gust
km/h
Spd
kts
Gust
kts
02/11:30pm 20.9 23.7 19.6 92 0.8 SSE 4 6 2 3 1015.6 1015.6 0.0
02/11:00pm 19.8 22.0 17.4 86 1.5 SSE 2 4 1 2 1015.6 1015.6 0.0
02/10:30pm 20.2 22.5 17.8 86 1.5 SSW 2 2 1 1 1015.4 1015.4 0.0
02/10:00pm 20.2 22.3 17.2 83 1.8 SW 2 2 1 1 1015.0 1015.0 0.0

Latest Capital City Observations: Canberra | Sydney | Melbourne | Brisbane | Adelaide | Perth | Hobart | Darwin

Other Formats:

Comma delimited format used in spreadsheet applications
http://www.bom.gov.au/fwo/IDD60901/IDD60901.94116.axf

JavaScript Object Notation format (JSON) in row-major order
http://www.bom.gov.au/fwo/IDD60901/IDD60901.94116.json